Blue Grass, North Dakota
Current Conditions -  °F | °C
As of 12:15 PM on Thursday 18 Dec 2014 (Local Time) from KD57 Reporting Station
Overcast Overcast  
Wind Chill: 14°   Ceiling: 800
Heat Index: 23°   Visibility: 9mi
Dew Point: 19°   Wind: 8mph
Humidity: 86%   Direction: 170°S
Pressure: 30.01"   Gusts: NA
Location:  46.861°N, 101.466°W
Report Text: KD57 181815Z AUTO 17007KT 9SM OVC008 M05/M07 A3001 RMK AO2 TSNO
Loading
Personal Weather Stations






























Interactive Weather Map New forecast layout! Learn more

10-Day Weather Forecast

Advertisements
Track Severe Weather on mobile